createdAt,value
2023-03-21T00:03:01.333Z,2.22
2023-03-21T00:07:04.653Z,2.83
2023-03-21T00:11:10.926Z,2.30
2023-03-21T00:15:20.631Z,2.45
2023-03-21T00:19:26.653Z,2.58
2023-03-21T00:23:31.493Z,2.25
2023-03-21T00:27:50.357Z,3.17
2023-03-21T00:31:56.834Z,1.70
2023-03-21T00:36:05.277Z,2.33
2023-03-21T00:40:23.134Z,2.85
2023-03-21T00:44:29.550Z,2.17
2023-03-21T00:48:33.156Z,2.30
2023-03-21T00:52:40.848Z,2.08
2023-03-21T00:56:45.003Z,2.13
2023-03-21T01:00:50.657Z,1.35
2023-03-21T01:04:54.540Z,1.80
2023-03-21T01:08:57.518Z,1.70
2023-03-21T01:13:01.752Z,1.85
2023-03-21T01:17:06.666Z,1.88
2023-03-21T01:21:12.199Z,1.77
2023-03-21T01:25:22.377Z,1.15
2023-03-21T01:29:26.938Z,1.48
2023-03-21T01:33:32.667Z,1.40
2023-03-21T01:37:35.977Z,1.40
2023-03-21T01:41:43.307Z,1.50
2023-03-21T01:46:22.418Z,1.40
2023-03-21T01:50:28.046Z,1.40
2023-03-21T01:54:35.047Z,1.80
2023-03-21T01:58:39.038Z,1.38
2023-03-21T02:02:52.679Z,1.20
2023-03-21T02:07:03.731Z,1.45
2023-03-21T02:11:08.011Z,1.00
2023-03-21T02:15:12.617Z,1.30
2023-03-21T02:20:09.319Z,1.45
2023-03-21T02:24:48.766Z,1.73
2023-03-21T02:29:01.176Z,1.25
2023-03-21T02:33:25.815Z,1.52
2023-03-21T02:37:38.493Z,2.05
2023-03-21T02:45:54.508Z,1.23
2023-03-21T02:50:03.407Z,1.63
2023-03-21T02:54:45.468Z,1.30
2023-03-21T02:58:36.904Z,1.73
2023-03-21T03:02:41.161Z,1.80
2023-03-21T03:07:03.859Z,2.72
2023-03-21T03:11:29.165Z,1.75
2023-03-21T03:15:45.929Z,1.80
2023-03-21T03:20:15.597Z,1.80
2023-03-21T03:24:24.198Z,1.40
2023-03-21T03:28:34.721Z,1.40
2023-03-21T03:32:45.030Z,2.30
2023-03-21T03:36:56.566Z,1.25
2023-03-21T03:41:04.767Z,1.92
2023-03-21T03:45:12.746Z,1.70
2023-03-21T03:49:20.054Z,1.52
2023-03-21T03:53:27.534Z,2.45
2023-03-21T03:57:31.070Z,2.40
2023-03-21T04:01:36.383Z,2.78
2023-03-21T04:05:39.527Z,3.35
2023-03-21T04:09:44.820Z,2.42
2023-03-21T04:13:48.419Z,3.55
2023-03-21T04:17:53.018Z,2.45
2023-03-21T04:21:56.116Z,2.35
2023-03-21T04:25:59.586Z,2.42
2023-03-21T04:30:02.555Z,2.60
2023-03-21T04:34:10.176Z,1.95
2023-03-21T04:38:13.932Z,2.75
2023-03-21T04:42:18.998Z,2.67
2023-03-21T04:46:21.929Z,2.60
2023-03-21T04:50:27.106Z,2.70
2023-03-21T04:54:30.137Z,2.80
2023-03-21T04:58:33.719Z,2.78
2023-03-21T05:02:37.007Z,2.70
2023-03-21T05:06:42.966Z,2.58
2023-03-21T05:10:45.869Z,3.13
2023-03-21T05:14:49.320Z,3.33
2023-03-21T05:18:52.810Z,2.70
2023-03-21T05:22:57.553Z,2.63
2023-03-21T05:27:02.709Z,3.30
2023-03-21T05:31:06.231Z,2.65
2023-03-21T05:35:10.232Z,2.47
2023-03-21T05:39:15.018Z,3.13
2023-03-21T05:43:18.302Z,3.28
2023-03-21T05:47:21.573Z,2.33
2023-03-21T05:51:24.754Z,4.38
2023-03-21T05:55:29.364Z,4.00
2023-03-21T05:59:32.350Z,5.10
2023-03-21T06:03:35.956Z,5.32
2023-03-21T06:07:40.029Z,2.78
2023-03-21T06:11:50.005Z,4.30
2023-03-21T06:15:53.024Z,2.97
2023-03-21T06:19:56.257Z,3.80
2023-03-21T06:23:59.198Z,3.00
2023-03-21T06:28:04.334Z,2.72
2023-03-21T06:32:08.223Z,3.10
2023-03-21T06:36:12.829Z,3.20
2023-03-21T06:40:16.132Z,2.67
2023-03-21T06:44:22.425Z,2.40
2023-03-21T06:48:25.980Z,2.83
2023-03-21T06:52:29.445Z,2.30
2023-03-21T06:56:32.797Z,2.53
2023-03-21T07:00:37.506Z,2.60
2023-03-21T07:04:40.705Z,2.20
2023-03-21T07:09:24.846Z,2.95
2023-03-21T07:13:27.771Z,2.90
2023-03-21T07:17:32.769Z,2.65
2023-03-21T07:21:35.819Z,2.88
2023-03-21T07:25:40.466Z,2.55
2023-03-21T07:29:44.249Z,2.92
2023-03-21T07:33:49.057Z,1.60
2023-03-21T07:37:52.351Z,2.00
2023-03-21T07:41:56.116Z,1.50
2023-03-21T07:46:00.088Z,2.33
2023-03-21T07:50:06.417Z,1.75
2023-03-21T07:54:09.479Z,2.28
2023-03-21T07:58:12.846Z,1.92
2023-03-21T08:02:16.818Z,2.50
2023-03-21T08:06:21.661Z,2.47
2023-03-21T08:10:24.748Z,2.75
2023-03-21T08:14:28.096Z,2.58
2023-03-21T08:18:30.993Z,2.28
2023-03-21T08:22:37.424Z,1.80
2023-03-21T08:26:40.523Z,2.15
2023-03-21T08:30:44.137Z,2.25
2023-03-21T08:34:47.037Z,2.25
2023-03-21T08:38:56.623Z,2.63
2023-03-21T08:42:59.877Z,1.90
2023-03-21T08:47:03.241Z,1.98
2023-03-21T08:51:07.191Z,1.52
2023-03-21T08:55:13.981Z,1.85
2023-03-21T08:59:17.060Z,2.40
2023-03-21T09:03:20.607Z,2.05
2023-03-21T09:07:26.560Z,1.75
2023-03-21T09:11:31.266Z,2.33
2023-03-21T09:15:35.475Z,2.28
2023-03-21T09:19:39.421Z,2.60
2023-03-21T09:23:44.893Z,1.73
2023-03-21T09:27:49.632Z,3.33
2023-03-21T09:31:53.606Z,1.88
2023-03-21T09:35:58.110Z,2.25
2023-03-21T09:40:08.046Z,3.13
2023-03-21T09:44:26.974Z,2.47
2023-03-21T09:48:46.974Z,2.08
2023-03-21T09:53:00.519Z,2.08
2023-03-21T09:57:12.311Z,2.22
2023-03-21T10:01:27.637Z,2.47
2023-03-21T10:05:33.861Z,2.25
2023-03-21T10:09:39.680Z,2.42
2023-03-21T10:13:45.702Z,1.60
2023-03-21T10:17:57.640Z,2.13
2023-03-21T10:22:02.723Z,1.80
2023-03-21T10:26:10.281Z,1.83
2023-03-21T10:30:26.515Z,1.27
2023-03-21T10:34:37.836Z,1.77
2023-03-21T10:38:46.525Z,2.75
2023-03-21T10:42:49.893Z,2.28
2023-03-21T10:46:54.822Z,2.38
2023-03-21T10:50:59.340Z,2.70
2023-03-21T10:55:09.710Z,1.92
2023-03-21T10:59:21.472Z,2.35
2023-03-21T11:03:29.518Z,2.95
2023-03-21T11:07:34.282Z,1.77
2023-03-21T11:11:40.522Z,1.88
2023-03-21T11:15:54.584Z,2.28
2023-03-21T11:20:00.245Z,2.28
2023-03-21T11:24:07.594Z,2.03
2023-03-21T11:28:15.191Z,2.13
2023-03-21T11:32:24.524Z,2.10
2023-03-21T11:36:39.054Z,2.22
2023-03-21T11:40:55.520Z,2.40
2023-03-21T11:45:12.677Z,1.98
2023-03-21T11:49:16.298Z,1.95
2023-03-21T11:53:35.595Z,2.15
2023-03-21T11:57:45.447Z,2.30
2023-03-21T12:02:10.739Z,1.90
2023-03-21T12:06:21.200Z,2.05
2023-03-21T12:10:34.059Z,2.17
2023-03-21T12:14:48.937Z,2.13
2023-03-21T12:19:13.710Z,2.33
2023-03-21T12:23:37.080Z,2.08
2023-03-21T12:27:51.758Z,2.67
2023-03-21T12:32:10.024Z,2.08
2023-03-21T12:36:27.654Z,2.42
2023-03-21T12:40:45.929Z,2.65
2023-03-21T12:44:52.561Z,2.78
2023-03-21T12:49:02.999Z,1.95
2023-03-21T12:53:16.578Z,2.45
2023-03-21T12:57:23.707Z,2.30
2023-03-21T13:01:27.919Z,2.65
2023-03-21T13:05:36.153Z,2.75
2023-03-21T13:09:40.763Z,2.70
2023-03-21T13:13:52.218Z,2.80
2023-03-21T13:18:02.927Z,2.67
2023-03-21T13:22:48.787Z,2.30
2023-03-21T13:27:00.833Z,2.67
2023-03-21T13:31:22.675Z,2.42
2023-03-21T13:35:37.770Z,3.10
2023-03-21T13:39:46.424Z,2.90
2023-03-21T13:43:55.940Z,2.65
2023-03-21T13:48:00.811Z,1.88
2023-03-21T13:52:26.827Z,2.55
2023-03-21T13:56:31.072Z,1.75
2023-03-21T14:00:40.873Z,2.20
2023-03-21T14:05:04.239Z,2.70
2023-03-21T14:09:08.317Z,2.17
2023-03-21T14:13:18.059Z,2.30
2023-03-21T14:17:26.810Z,2.20
2023-03-21T14:21:32.549Z,1.98
2023-03-21T14:25:44.718Z,2.15
2023-03-21T14:29:52.072Z,2.05
2023-03-21T14:33:58.972Z,2.60
2023-03-21T14:38:05.163Z,1.95
2023-03-21T14:42:09.541Z,1.63
2023-03-21T14:46:14.473Z,2.20
2023-03-21T14:50:21.807Z,2.13
2023-03-21T14:54:27.898Z,1.92
2023-03-21T14:58:32.305Z,2.28
2023-03-21T15:02:38.037Z,1.58
2023-03-21T15:06:52.644Z,2.58
2023-03-21T15:11:06.144Z,2.58
2023-03-21T15:15:16.618Z,1.83
2023-03-21T15:19:25.298Z,1.88
2023-03-21T15:23:33.724Z,1.83
2023-03-21T15:27:41.256Z,2.45
2023-03-21T15:31:45.315Z,1.92
2023-03-21T15:35:54.309Z,2.42
2023-03-21T15:40:13.124Z,2.42
2023-03-21T15:44:17.809Z,2.13
2023-03-21T15:52:30.277Z,1.95
2023-03-21T15:56:36.570Z,2.33
2023-03-21T16:00:42.764Z,2.10
2023-03-21T16:05:01.031Z,1.25
2023-03-21T16:09:14.679Z,1.73
2023-03-21T16:13:19.706Z,1.73
2023-03-21T16:17:33.899Z,2.80
2023-03-21T16:21:38.632Z,3.05
2023-03-21T16:25:42.340Z,3.40
2023-03-21T16:29:47.060Z,2.53
2023-03-21T16:33:51.607Z,1.90
2023-03-21T16:37:54.963Z,1.80
2023-03-21T16:41:59.081Z,1.80
2023-03-21T16:46:03.405Z,1.80
2023-03-21T16:50:21.432Z,1.80
2023-03-21T16:54:24.771Z,1.85
2023-03-21T16:58:29.613Z,1.85
2023-03-21T17:02:34.754Z,2.13
2023-03-21T17:06:44.627Z,1.92
2023-03-21T17:10:48.291Z,2.03
2023-03-21T17:14:51.655Z,1.88
2023-03-21T17:18:57.090Z,1.80
2023-03-21T17:23:01.480Z,2.17
2023-03-21T17:27:05.532Z,2.95
2023-03-21T17:31:14.481Z,2.90
2023-03-21T17:35:19.807Z,2.55
2023-03-21T17:39:25.260Z,3.15
2023-03-21T17:43:29.463Z,2.22
2023-03-21T17:47:32.924Z,2.33
2023-03-21T17:51:37.917Z,2.10
2023-03-21T17:55:42.761Z,3.70
2023-03-21T17:59:46.172Z,5.05
2023-03-21T18:03:49.411Z,2.80
2023-03-21T18:08:09.819Z,2.78
2023-03-21T18:12:14.377Z,2.95
2023-03-21T18:16:20.479Z,2.78
2023-03-21T18:20:44.624Z,2.90
2023-03-21T18:24:52.398Z,2.97
2023-03-21T18:29:47.301Z,2.58
2023-03-21T18:33:18.941Z,2.67
2023-03-21T18:37:22.297Z,2.40
2023-03-21T18:41:26.883Z,2.35
2023-03-21T18:45:29.952Z,2.55
2023-03-21T18:50:12.759Z,2.95
2023-03-21T18:53:58.625Z,2.65
2023-03-21T18:58:03.496Z,2.72
2023-03-21T19:02:07.426Z,2.85
2023-03-21T19:06:11.052Z,2.28
2023-03-21T19:14:37.387Z,2.40
2023-03-21T19:18:57.263Z,2.13
2023-03-21T19:23:00.927Z,2.78
2023-03-21T19:27:04.230Z,2.55
2023-03-21T19:31:10.340Z,3.30
2023-03-21T19:35:14.410Z,2.60
2023-03-21T19:39:22.708Z,4.13
2023-03-21T19:43:32.869Z,4.43
2023-03-21T19:47:38.123Z,4.55
2023-03-21T19:51:41.330Z,4.80
2023-03-21T19:55:44.587Z,5.80
2023-03-21T19:59:47.698Z,4.35
2023-03-21T20:03:52.657Z,4.68
2023-03-21T20:07:57.369Z,4.20
2023-03-21T20:12:01.819Z,4.82
2023-03-21T20:16:04.782Z,4.57
2023-03-21T20:20:14.204Z,3.78
2023-03-21T20:24:17.766Z,4.85
2023-03-21T20:28:25.897Z,5.18
2023-03-21T20:32:31.690Z,4.35
2023-03-21T20:36:41.103Z,4.63
2023-03-21T20:40:48.132Z,5.55
2023-03-21T20:44:59.280Z,4.95
2023-03-21T20:49:05.936Z,4.82
2023-03-21T20:53:10.938Z,5.18
2023-03-21T20:57:13.863Z,4.72
2023-03-21T21:01:18.390Z,4.80
2023-03-21T21:05:28.802Z,5.65
2023-03-21T21:09:34.889Z,5.28
2023-03-21T21:13:38.054Z,4.43
2023-03-21T21:22:04.705Z,5.32
2023-03-21T21:26:10.712Z,5.85
2023-03-21T21:30:14.893Z,6.00
2023-03-21T21:34:20.612Z,5.30
2023-03-21T21:38:24.386Z,4.97
2023-03-21T21:42:29.067Z,4.80
2023-03-21T21:46:32.464Z,6.13
2023-03-21T21:50:37.073Z,4.85
2023-03-21T21:54:46.001Z,5.13
2023-03-21T21:58:53.813Z,4.13
2023-03-21T22:02:56.709Z,3.85
2023-03-21T22:07:00.281Z,3.15
2023-03-21T22:11:03.962Z,3.35
2023-03-21T22:15:11.164Z,3.90
2023-03-21T22:19:14.250Z,3.35
2023-03-21T22:23:19.711Z,3.60
2023-03-21T22:27:22.580Z,3.53
2023-03-21T22:31:27.906Z,3.15
2023-03-21T22:35:31.279Z,4.65
2023-03-21T22:39:34.578Z,4.82
2023-03-21T22:43:37.760Z,5.15
2023-03-21T22:47:42.428Z,4.68
2023-03-21T22:51:45.785Z,5.75
2023-03-21T22:55:48.998Z,4.25
2023-03-21T22:59:52.132Z,4.50
2023-03-21T23:03:57.187Z,4.38
2023-03-21T23:08:00.519Z,3.53
2023-03-21T23:12:03.765Z,4.90
2023-03-21T23:16:07.752Z,3.95
2023-03-21T23:20:13.577Z,5.97
2023-03-21T23:24:16.736Z,5.18
2023-03-21T23:28:20.453Z,5.40
2023-03-21T23:32:23.961Z,5.15
2023-03-21T23:36:29.119Z,6.13
2023-03-21T23:40:32.403Z,6.00
2023-03-21T23:44:35.670Z,5.25
2023-03-21T23:48:38.788Z,4.93
2023-03-21T23:52:45.268Z,4.55
2023-03-21T23:56:48.168Z,5.53
